Terminal Aerodrome Forecast
Issued by NWS

Home | Current Version | Previous Version | Text Only | Print | Product List | Glossary On
Versions: 1 2 3 4 5 6 7 8 9 10 11 12 13 14 15 16 17 18 19 20 21 22 23 24 25 26 27 28 29
853
FTUS43 KEAX 300444 AAC
TAFMKC
TAF AMD
KMKC 300444Z 3005/3024 04004KT 6SM BR VCTS BKN010CB BKN045 OVC070
     FM300800 06009KT 3SM BR VCTS BKN008CB
     FM301500 02008KT 2SM -SHRA OVC003
     FM301800 01009KT 3SM BR VCSH OVC008
     FM302100 36011KT P6SM OVC008=

USA.gov is the U.S. government's official web portal to all federal, state and local government web resources and services.